Terminal Aerodrome Forecast
Issued by NWS Melbourne, FL

Home | Current Version | Previous Version | Text Only | Print | Product List | Glossary On
Versions: 1 2 3 4 5 6 7 8 9 10 11 12 13 14 15 16
000
FTUS42 KMLB 011800 AAA
TAFMLB
TAF AMD
KMLB 011806Z 0118/0218 03003KT P6SM VCTS SCT025CB BKN045
      TEMPO 0118/0122 3SM SHRA BKN020
     FM020300 11003KT P6SM SCT012 BKN030
     FM020600 26003KT P6SM BKN025=

USA.gov is the U.S. government's official web portal to all federal, state and local government web resources and services.